High Level, High Level Airport (CYOJ)

NameHigh Level Airport
CityHigh Level
CountryCanada
ICAOCYOJ
IATAYOJ
Altitude338 m
CoordinatesGoogle Map
Live Air TrafficLiveATC.net
METARCYOJ 191000Z AUTO 01005KT 9SM BKN015 OVC075 07/05 A2994 RMK SLP153
2019-08-19 10:00:00 Wind: North (10°) 2.57 m/s - Visibility: 14484.06 m - Temperature: 7 °C - Dew point: 5 °C - Humidity: 87.2% - Pressure: 1013.88 hPa

Sorry, no flights used the airport in this database.